Time;durP1;ratioP1;P1;durP2;ratioP2;P2;SDS_P1;SDS_P2;PMS_P1;PMS_P2;Temp;Humidity;BMP_temperature;BMP_pressure;BME280_temperature;BME280_humidity;BME280_pressure;Samples;Min_cycle;Max_cycle;Signal;HPM_P1;HPM_P2
2023/10/23 00:02:13;;;;;;;280.58;167.13;;;27.70;99.90;;;;;;5035128;28;20022;-68
2023/10/23 00:04:39;;;;;;;300.63;176.32;;;27.70;99.90;;;;;;5044777;28;20048;-67
2023/10/23 00:07:06;;;;;;;270.65;163.77;;;27.70;99.90;;;;;;5044818;28;20013;-66
2023/10/23 00:09:33;;;;;;;316.42;206.23;;;27.80;99.90;;;;;;5034909;28;20017;-65
2023/10/23 00:12:02;;;;;;;294.75;174.23;;;27.90;99.90;;;;;;5044667;28;20032;-63
2023/10/23 00:14:29;;;;;;;300.55;170.43;;;27.90;99.90;;;;;;5044279;28;20028;-63
2023/10/23 00:16:55;;;;;;;291.20;171.20;;;27.90;99.90;;;;;;5045154;28;20021;-63
2023/10/23 00:19:22;;;;;;;279.17;162.77;;;27.90;99.90;;;;;;5044575;28;20024;-63
2023/10/23 00:21:49;;;;;;;271.45;160.20;;;27.90;99.90;;;;;;5034841;28;20026;-64
2023/10/23 00:24:16;;;;;;;272.95;159.98;;;28.00;99.90;;;;;;5035243;28;20474;-64
2023/10/23 00:26:43;;;;;;;271.08;157.93;;;28.00;99.90;;;;;;5045649;28;20028;-63
2023/10/23 00:29:09;;;;;;;270.25;159.13;;;28.10;99.90;;;;;;5043854;28;20021;-64
2023/10/23 00:31:36;;;;;;;294.65;168.48;;;28.20;99.90;;;;;;5045380;28;20469;-65
2023/10/23 00:34:03;;;;;;;331.75;203.13;;;28.20;99.90;;;;;;5035218;28;20475;-64
2023/10/23 00:36:29;;;;;;;296.02;176.20;;;28.20;99.90;;;;;;5034787;28;20026;-65
2023/10/23 00:38:56;;;;;;;295.17;173.20;;;28.30;99.90;;;;;;5034406;28;20029;-65
2023/10/23 00:41:23;;;;;;;311.50;181.38;;;28.30;99.90;;;;;;5035091;28;20018;-65
2023/10/23 00:43:49;;;;;;;286.83;173.82;;;28.40;99.90;;;;;;5034970;28;20502;-65
2023/10/23 00:46:20;;;;;;;331.73;174.40;;;28.40;99.90;;;;;;5034881;28;20021;-64
2023/10/23 00:48:48;;;;;;;279.08;165.15;;;28.50;99.90;;;;;;5034755;28;20018;-65
2023/10/23 00:51:16;;;;;;;247.77;146.10;;;28.50;99.90;;;;;;5037277;28;20013;-64
2023/10/23 00:53:44;;;;;;;222.05;134.05;;;28.60;99.90;;;;;;5033772;28;20045;-64
2023/10/23 00:56:13;;;;;;;216.60;131.00;;;28.60;99.90;;;;;;5043204;28;20021;-65
2023/10/23 00:58:42;;;;;;;218.45;133.98;;;28.70;99.90;;;;;;5043061;28;20445;-68
2023/10/23 01:01:13;;;;;;;211.15;126.10;;;28.70;99.90;;;;;;5040296;28;20521;-63
2023/10/23 01:03:40;;;;;;;221.88;134.18;;;28.80;99.90;;;;;;5042941;28;20468;-66
2023/10/23 01:06:07;;;;;;;273.88;170.48;;;28.80;99.90;;;;;;5033690;28;20044;-67
2023/10/23 01:08:34;;;;;;;251.98;161.70;;;28.90;99.90;;;;;;5062996;22;20052;-66
2023/10/23 01:11:01;;;;;;;214.80;128.82;;;29.00;99.90;;;;;;5042487;28;20052;-65
2023/10/23 01:13:28;;;;;;;214.50;131.90;;;29.00;99.90;;;;;;5048642;28;20013;-67
2023/10/23 01:15:55;;;;;;;242.20;164.90;;;29.10;99.90;;;;;;5053678;28;20025;-67
2023/10/23 01:18:22;;;;;;;175.27;109.47;;;29.10;99.90;;;;;;5054206;28;20446;-66
2023/10/23 01:20:49;;;;;;;155.50;102.07;;;29.20;99.90;;;;;;5053996;28;20051;-66
2023/10/23 01:23:16;;;;;;;155.35;93.07;;;29.30;99.90;;;;;;5053681;28;20504;-66
2023/10/23 01:25:43;;;;;;;140.02;86.50;;;29.40;99.90;;;;;;5054119;28;20389;-65
2023/10/23 01:28:09;;;;;;;149.45;91.82;;;29.50;99.90;;;;;;5054027;28;20028;-62
2023/10/23 01:30:38;;;;;;;150.75;94.40;;;29.50;99.90;;;;;;5053781;28;20017;-65
2023/10/23 01:33:04;;;;;;;109.57;71.60;;;29.50;99.90;;;;;;5053798;28;20470;-65
2023/10/23 01:35:31;;;;;;;105.35;68.40;;;29.50;99.90;;;;;;5054205;28;20389;-65
2023/10/23 01:37:58;;;;;;;98.40;65.35;;;29.50;99.90;;;;;;5053624;28;20413;-64
2023/10/23 01:40:24;;;;;;;89.03;55.38;;;29.60;99.90;;;;;;5053847;28;20021;-64
2023/10/23 01:42:51;;;;;;;84.38;57.55;;;29.60;99.90;;;;;;5053723;28;20028;-65
2023/10/23 01:45:20;;;;;;;109.93;70.85;;;29.60;99.90;;;;;;5053521;28;20021;-64
2023/10/23 01:47:47;;;;;;;101.38;69.72;;;29.60;99.90;;;;;;5053450;28;20114;-65
2023/10/23 01:50:14;;;;;;;99.32;67.80;;;29.60;99.90;;;;;;5053688;28;20536;-66
2023/10/23 01:52:41;;;;;;;87.05;58.90;;;29.60;99.90;;;;;;5053319;28;20037;-64
2023/10/23 01:55:08;;;;;;;90.50;61.13;;;29.50;99.90;;;;;;5053365;28;20108;-65
2023/10/23 01:57:35;;;;;;;95.50;61.97;;;29.60;99.90;;;;;;5053479;28;20033;-65
2023/10/23 02:00:06;;;;;;;98.97;66.32;;;29.60;99.90;;;;;;5053490;28;20104;-65
2023/10/23 02:02:33;;;;;;;112.38;71.38;;;29.70;99.90;;;;;;5053336;28;20033;-65
2023/10/23 02:05:00;;;;;;;108.65;68.72;;;29.80;99.90;;;;;;5053307;28;20032;-65
2023/10/23 02:07:27;;;;;;;103.13;67.65;;;29.70;99.90;;;;;;5035366;28;20448;-65
2023/10/23 02:09:56;;;;;;;109.20;71.43;;;29.80;99.90;;;;;;5053152;28;20033;-63
2023/10/23 02:12:24;;;;;;;98.10;67.90;;;29.80;99.90;;;;;;5053150;28;20033;-63
2023/10/23 02:14:52;;;;;;;95.05;65.75;;;29.70;99.90;;;;;;5052988;28;20107;-63
2023/10/23 02:17:20;;;;;;;93.50;63.75;;;29.80;99.90;;;;;;5053102;28;20036;-65
2023/10/23 02:19:47;;;;;;;95.22;64.70;;;29.80;99.90;;;;;;5053324;28;20021;-64
2023/10/23 02:22:14;;;;;;;88.82;62.72;;;29.90;99.90;;;;;;5052837;28;20028;-63
2023/10/23 02:24:41;;;;;;;85.65;60.83;;;29.90;99.90;;;;;;5052998;28;20062;-63
2023/10/23 02:27:07;;;;;;;92.72;61.83;;;30.00;99.90;;;;;;5053095;28;20013;-63
2023/10/23 02:29:34;;;;;;;92.15;61.30;;;30.00;99.90;;;;;;5052487;28;20024;-63
2023/10/23 02:32:01;;;;;;;90.43;60.15;;;30.00;99.90;;;;;;5052745;28;20021;-63
2023/10/23 02:34:27;;;;;;;88.32;60.22;;;30.00;99.90;;;;;;5052797;28;20021;-62
2023/10/23 02:36:54;;;;;;;92.50;63.10;;;30.10;99.90;;;;;;5052809;28;20382;-62
2023/10/23 02:39:21;;;;;;;95.82;62.95;;;30.10;99.90;;;;;;5052511;28;20474;-62
2023/10/23 02:41:48;;;;;;;89.40;62.38;;;30.20;99.90;;;;;;5052295;28;20028;-62
2023/10/23 02:44:14;;;;;;;93.65;63.35;;;30.20;99.90;;;;;;5052457;28;20092;-62
2023/10/23 02:46:41;;;;;;;99.88;67.25;;;30.30;99.90;;;;;;5052827;28;20014;-62
2023/10/23 02:49:08;;;;;;;98.25;63.85;;;30.30;99.90;;;;;;5052576;28;20021;-61
2023/10/23 02:51:37;;;;;;;87.90;61.08;;;30.40;99.90;;;;;;5052223;28;20025;-62
2023/10/23 02:54:04;;;;;;;86.68;59.58;;;30.40;99.90;;;;;;5052343;28;20055;-62
2023/10/23 02:56:32;;;;;;;81.25;56.03;;;30.50;99.90;;;;;;5052002;28;20029;-63
2023/10/23 02:58:58;;;;;;;81.28;54.70;;;30.60;99.90;;;;;;5053466;28;20056;-63
2023/10/23 03:01:25;;;;;;;81.80;54.75;;;30.60;99.90;;;;;;5056852;28;20037;-63
2023/10/23 03:03:52;;;;;;;73.78;50.50;;;30.70;99.90;;;;;;5056666;28;20469;-60
2023/10/23 03:06:20;;;;;;;74.90;51.05;;;30.70;99.90;;;;;;5056437;28;20449;-61
2023/10/23 03:08:47;;;;;;;71.97;48.30;;;30.70;99.90;;;;;;5055993;28;20081;-63
2023/10/23 03:11:13;;;;;;;79.70;50.35;;;30.70;99.90;;;;;;5056181;28;20470;-63
2023/10/23 03:13:40;;;;;;;74.13;50.90;;;30.80;99.90;;;;;;5055618;28;20112;-61
2023/10/23 03:16:07;;;;;;;81.40;55.95;;;30.80;99.90;;;;;;5055726;28;20415;-62
2023/10/23 03:18:33;;;;;;;76.85;55.55;;;30.90;99.90;;;;;;5055770;28;20096;-62
2023/10/23 03:21:00;;;;;;;78.15;55.78;;;31.00;99.90;;;;;;5055764;28;20017;-60
2023/10/23 03:23:30;;;;;;;78.45;57.13;;;31.10;99.90;;;;;;5055475;28;20115;-62
2023/10/23 03:25:57;;;;;;;84.43;61.58;;;31.30;99.90;;;;;;5037706;28;20374;-62
2023/10/23 03:28:24;;;;;;;82.53;58.15;;;31.40;99.90;;;;;;5055665;28;20017;-63
2023/10/23 03:30:51;;;;;;;79.22;56.08;;;31.40;99.90;;;;;;5055783;28;20104;-64
2023/10/23 03:33:18;;;;;;;86.75;58.67;;;31.40;99.90;;;;;;5055739;28;20111;-63
2023/10/23 03:35:45;;;;;;;88.65;60.08;;;31.40;99.90;;;;;;5055835;28;20063;-62
2023/10/23 03:38:14;;;;;;;94.80;63.33;;;31.40;99.90;;;;;;5055966;28;20116;-63
2023/10/23 03:40:41;;;;;;;102.40;65.53;;;31.40;99.90;;;;;;5055847;28;20477;-63
2023/10/23 03:43:08;;;;;;;109.03;68.53;;;31.40;99.90;;;;;;5055634;28;20414;-63
2023/10/23 03:45:36;;;;;;;100.55;68.80;;;31.50;99.90;;;;;;5055985;28;20609;-64
2023/10/23 03:48:03;;;;;;;96.97;68.40;;;31.40;99.90;;;;;;5056073;28;20021;-63
2023/10/23 03:50:30;;;;;;;98.55;67.65;;;31.40;99.90;;;;;;5055792;28;20053;-64
2023/10/23 03:52:57;;;;;;;103.32;70.60;;;31.40;99.90;;;;;;5055720;28;20082;-64
2023/10/23 03:55:24;;;;;;;110.97;72.60;;;31.40;99.90;;;;;;5055988;28;20024;-63
2023/10/23 03:57:51;;;;;;;137.55;89.30;;;31.50;99.90;;;;;;5036085;28;20083;-65
2023/10/23 04:00:18;;;;;;;130.80;91.78;;;31.60;99.90;;;;;;5032036;28;20625;-65
2023/10/23 04:02:45;;;;;;;145.02;98.55;;;31.70;99.90;;;;;;5035746;28;20033;-65
2023/10/23 04:05:12;;;;;;;140.52;98.45;;;31.80;99.90;;;;;;5035473;28;20026;-66
2023/10/23 04:07:39;;;;;;;155.90;104.07;;;31.80;99.90;;;;;;5033804;28;20045;-66
2023/10/23 04:10:10;;;;;;;154.80;100.20;;;31.80;99.90;;;;;;5029309;28;20129;-65
2023/10/23 04:12:36;;;;;;;149.05;99.35;;;31.90;99.90;;;;;;5035457;28;20036;-66
2023/10/23 04:15:03;;;;;;;142.70;96.28;;;31.90;99.90;;;;;;5035615;28;20025;-65
2023/10/23 04:17:30;;;;;;;138.77;93.20;;;31.90;99.90;;;;;;5035526;28;20033;-65
2023/10/23 04:19:57;;;;;;;151.50;99.85;;;32.00;99.90;;;;;;5035262;28;20029;-66
2023/10/23 04:22:24;;;;;;;151.80;97.72;;;32.10;99.90;;;;;;5035305;28;20532;-65
2023/10/23 04:24:53;;;;;;;153.77;103.25;;;32.20;99.90;;;;;;5028337;28;20054;-64
2023/10/23 04:27:20;;;;;;;157.80;101.28;;;32.30;99.90;;;;;;5015263;28;20053;-65
2023/10/23 04:29:47;;;;;;;135.30;93.05;;;32.40;99.90;;;;;;5015380;28;20032;-64
2023/10/23 04:32:14;;;;;;;150.23;104.13;;;32.30;99.90;;;;;;5015462;28;20033;-63
2023/10/23 04:34:41;;;;;;;176.30;137.00;;;32.30;99.90;;;;;;5015250;28;20546;-64
2023/10/23 04:37:07;;;;;;;155.23;106.20;;;32.30;99.90;;;;;;5015487;28;20026;-64
2023/10/23 04:39:34;;;;;;;147.43;108.00;;;32.40;99.90;;;;;;5015167;28;20030;-64
2023/10/23 04:42:01;;;;;;;130.70;87.63;;;32.50;99.90;;;;;;5015132;28;20104;-64
2023/10/23 04:44:28;;;;;;;135.18;94.28;;;32.60;99.90;;;;;;5015080;28;20022;-64
2023/10/23 04:46:55;;;;;;;151.43;98.78;;;32.70;99.90;;;;;;5015093;28;20030;-63
2023/10/23 04:49:21;;;;;;;153.75;99.13;;;32.90;99.90;;;;;;5015084;28;20022;-65
2023/10/23 04:51:48;;;;;;;142.25;95.55;;;33.10;99.90;;;;;;5014832;28;20101;-64
2023/10/23 04:54:15;;;;;;;135.88;92.68;;;33.10;99.90;;;;;;5015219;28;20417;-64
2023/10/23 04:56:42;;;;;;;139.43;91.93;;;33.10;99.90;;;;;;5014888;28;20022;-65
2023/10/23 04:59:08;;;;;;;128.80;88.15;;;33.20;99.90;;;;;;5015107;28;20022;-65
2023/10/23 05:01:35;;;;;;;135.05;87.25;;;33.20;99.90;;;;;;5014805;28;20026;-64
2023/10/23 05:04:02;;;;;;;129.75;86.80;;;33.20;99.90;;;;;;5014612;28;20026;-65
2023/10/23 05:06:29;;;;;;;124.35;86.22;;;33.10;99.90;;;;;;5014111;28;20025;-64
2023/10/23 05:08:56;;;;;;;137.02;91.00;;;33.20;99.90;;;;;;5013496;28;20080;-66
2023/10/23 05:11:22;;;;;;;152.35;103.05;;;33.30;99.90;;;;;;5014118;28;20021;-65
2023/10/23 05:13:50;;;;;;;147.73;99.70;;;33.30;99.90;;;;;;5014416;28;20029;-64
2023/10/23 05:16:17;;;;;;;132.35;89.47;;;33.20;99.90;;;;;;5014500;28;20045;-64
2023/10/23 05:18:43;;;;;;;129.48;88.25;;;33.30;99.90;;;;;;5014557;28;20030;-64
2023/10/23 05:21:12;;;;;;;128.27;86.88;;;33.40;99.90;;;;;;5013833;28;20034;-65
2023/10/23 05:23:40;;;;;;;119.68;84.40;;;33.40;99.90;;;;;;5014350;28;20034;-65
2023/10/23 05:26:15;;;;;;;120.72;79.30;;;33.50;99.90;;;;;;5014333;28;20120;-65
2023/10/23 05:28:42;;;;;;;111.25;77.75;;;33.60;99.90;;;;;;5014262;28;20387;-65
2023/10/23 05:31:09;;;;;;;127.90;84.82;;;33.70;99.90;;;;;;5014470;28;20040;-65
2023/10/23 05:33:36;;;;;;;118.15;82.30;;;33.70;99.90;;;;;;5014182;28;20073;-65
2023/10/23 05:36:09;;;;;;;109.88;75.82;;;33.70;99.40;;;;;;5014176;28;20129;-65
2023/10/23 05:38:37;;;;;;;113.97;78.45;;;33.80;97.90;;;;;;5014102;28;20030;-66
2023/10/23 05:41:07;;;;;;;109.88;75.07;;;33.90;97.20;;;;;;5032610;28;20025;-64
2023/10/23 05:43:34;;;;;;;131.10;91.53;;;33.90;98.10;;;;;;5027634;28;20070;-65
2023/10/23 05:46:03;;;;;;;135.40;90.18;;;33.90;99.20;;;;;;5024139;28;20378;-64
2023/10/23 05:48:33;;;;;;;129.38;87.75;;;33.90;99.30;;;;;;5025737;28;20115;-66
2023/10/23 05:51:04;;;;;;;210.45;151.93;;;33.90;99.40;;;;;;5025418;28;20021;-65
2023/10/23 05:53:31;;;;;;;191.83;127.87;;;34.00;99.70;;;;;;5016148;28;20041;-64
2023/10/23 05:56:07;;;;;;;173.23;121.50;;;34.00;99.90;;;;;;5018896;28;20045;-64
2023/10/23 05:58:34;;;;;;;170.02;126.93;;;34.00;99.80;;;;;;5021605;28;20479;-64
2023/10/23 06:01:11;;;;;;;135.07;92.25;;;33.90;99.70;;;;;;5033888;28;20029;-64
2023/10/23 06:03:37;;;;;;;166.13;124.22;;;33.90;99.60;;;;;;5041943;28;20032;-64
2023/10/23 06:06:05;;;;;;;144.95;98.97;;;33.90;99.80;;;;;;5044050;28;20368;-64
2023/10/23 06:08:32;;;;;;;140.25;95.57;;;34.00;98.20;;;;;;5042831;28;20399;-63
2023/10/23 06:10:59;;;;;;;132.52;92.50;;;34.20;98.30;;;;;;5041751;28;20030;-64
2023/10/23 06:13:26;;;;;;;128.15;90.97;;;34.30;98.30;;;;;;5045453;28;20059;-64
2023/10/23 06:15:53;;;;;;;134.93;91.30;;;34.40;97.20;;;;;;5042863;28;20071;-63
2023/10/23 06:18:20;;;;;;;130.18;88.43;;;34.40;96.80;;;;;;5044249;28;20025;-64
2023/10/23 06:20:47;;;;;;;127.72;87.97;;;34.40;96.80;;;;;;5039657;28;20021;-64
2023/10/23 06:23:14;;;;;;;130.27;88.60;;;34.50;95.60;;;;;;5042188;28;20105;-65
2023/10/23 06:25:40;;;;;;;126.07;85.70;;;34.50;96.20;;;;;;5043667;28;20021;-66
2023/10/23 06:28:08;;;;;;;122.88;86.97;;;34.50;96.70;;;;;;5043288;28;20097;-65
2023/10/23 06:30:36;;;;;;;120.93;86.45;;;34.50;96.40;;;;;;5051157;28;20032;-64
2023/10/23 06:33:02;;;;;;;126.40;89.47;;;34.40;96.60;;;;;;5053452;28;20059;-63
2023/10/23 06:35:29;;;;;;;129.40;90.68;;;34.40;96.40;;;;;;5039855;28;20355;-63
2023/10/23 06:37:56;;;;;;;137.40;91.60;;;34.30;95.50;;;;;;5037653;28;20057;-63
2023/10/23 06:40:23;;;;;;;129.95;90.72;;;34.30;95.70;;;;;;5038638;28;20034;-63
2023/10/23 06:42:49;;;;;;;130.50;93.10;;;34.30;95.90;;;;;;5037303;28;20029;-63
2023/10/23 06:45:16;;;;;;;139.30;95.05;;;34.30;96.00;;;;;;5037610;28;20482;-63
2023/10/23 06:47:47;;;;;;;134.75;95.85;;;34.60;96.40;;;;;;5038196;28;20023;-63
2023/10/23 06:50:13;;;;;;;131.52;90.47;;;34.70;95.00;;;;;;5040449;28;20043;-63
2023/10/23 06:52:40;;;;;;;141.25;92.95;;;34.70;95.50;;;;;;5042327;28;20025;-63
2023/10/23 06:55:07;;;;;;;138.55;96.05;;;34.80;95.90;;;;;;5046481;28;20020;-63
2023/10/23 06:57:34;;;;;;;138.13;97.43;;;34.80;95.80;;;;;;5047071;28;20021;-63
2023/10/23 07:00:01;;;;;;;134.82;96.75;;;34.80;95.60;;;;;;5042484;28;20068;-63
2023/10/23 07:02:27;;;;;;;151.38;101.07;;;34.80;95.60;;;;;;5046105;28;20017;-63
2023/10/23 07:04:54;;;;;;;149.48;103.75;;;34.80;95.20;;;;;;5046987;28;20013;-62
2023/10/23 07:07:21;;;;;;;167.32;106.35;;;34.80;94.70;;;;;;5042706;28;20458;-63
2023/10/23 07:09:48;;;;;;;162.23;111.13;;;34.90;94.20;;;;;;5045626;28;20041;-63
2023/10/23 07:12:14;;;;;;;162.07;105.75;;;34.90;94.40;;;;;;5047000;28;20021;-63
2023/10/23 07:14:41;;;;;;;170.63;112.72;;;35.00;94.30;;;;;;5045309;28;20024;-64
2023/10/23 07:17:08;;;;;;;166.90;114.22;;;35.00;93.20;;;;;;5056742;28;20104;-64
2023/10/23 07:19:34;;;;;;;162.32;110.75;;;34.90;92.80;;;;;;5056461;28;20515;-64
2023/10/23 07:22:01;;;;;;;160.02;109.25;;;35.10;92.30;;;;;;5056304;28;20029;-64
2023/10/23 07:24:28;;;;;;;167.63;113.90;;;35.20;92.40;;;;;;5056238;28;20401;-66
2023/10/23 07:26:54;;;;;;;163.32;111.47;;;35.20;92.30;;;;;;5055924;28;20456;-70
2023/10/23 07:29:21;;;;;;;163.57;112.55;;;35.20;91.80;;;;;;5056227;28;20040;-70
2023/10/23 07:31:48;;;;;;;173.30;118.32;;;35.30;92.30;;;;;;5056171;28;20032;-66
2023/10/23 07:34:15;;;;;;;179.20;118.72;;;35.30;91.50;;;;;;5056300;28;20473;-66
2023/10/23 07:36:41;;;;;;;169.80;113.80;;;35.40;90.90;;;;;;5055994;28;20037;-65
2023/10/23 07:39:08;;;;;;;166.70;111.20;;;35.40;90.70;;;;;;5055970;28;20051;-66
2023/10/23 07:41:35;;;;;;;155.65;108.45;;;35.30;91.80;;;;;;5055970;28;20024;-65
2023/10/23 07:44:02;;;;;;;172.80;117.47;;;35.30;92.10;;;;;;5055934;28;20432;-66
2023/10/23 07:46:29;;;;;;;210.27;141.73;;;35.30;91.90;;;;;;5055546;28;20049;-64
2023/10/23 07:48:55;;;;;;;200.63;136.23;;;35.20;92.00;;;;;;5055692;28;20124;-68
2023/10/23 07:51:22;;;;;;;227.45;154.25;;;35.20;92.00;;;;;;5055392;28;20096;-64
2023/10/23 07:53:49;;;;;;;179.45;121.88;;;35.20;92.20;;;;;;5055320;28;20108;-65
2023/10/23 07:56:16;;;;;;;183.40;118.40;;;35.20;90.60;;;;;;5055228;28;20544;-65
2023/10/23 07:58:42;;;;;;;171.40;116.93;;;35.20;90.50;;;;;;5055370;28;20112;-65
2023/10/23 08:01:12;;;;;;;187.00;124.53;;;35.20;90.70;;;;;;5055284;28;20021;-67
2023/10/23 08:03:39;;;;;;;186.10;130.98;;;35.20;91.20;;;;;;5055501;28;20036;-63
2023/10/23 08:06:08;;;;;;;207.23;137.85;;;35.30;90.90;;;;;;5055486;28;20036;-67
2023/10/23 08:08:37;;;;;;;195.18;131.07;;;35.30;90.90;;;;;;5055168;28;20032;-64
2023/10/23 08:11:05;;;;;;;189.80;130.30;;;35.30;91.60;;;;;;5055618;28;20029;-65
2023/10/23 08:13:32;;;;;;;190.20;122.70;;;35.20;91.80;;;;;;5055603;28;20032;-66
2023/10/23 08:16:00;;;;;;;174.40;118.90;;;35.20;91.80;;;;;;5055294;28;20024;-65
2023/10/23 08:18:26;;;;;;;200.23;131.68;;;35.30;92.10;;;;;;5055238;28;20040;-63
2023/10/23 08:20:53;;;;;;;194.68;127.93;;;35.20;92.00;;;;;;5055404;28;20462;-64
2023/10/23 08:23:20;;;;;;;172.20;120.25;;;35.20;92.10;;;;;;5054799;28;20039;-64
2023/10/23 08:25:47;;;;;;;197.60;128.30;;;35.20;92.10;;;;;;5054917;28;20021;-64
2023/10/23 08:28:13;;;;;;;191.00;126.68;;;35.20;92.20;;;;;;5054777;28;20017;-65
2023/10/23 08:30:41;;;;;;;204.05;136.48;;;35.30;92.40;;;;;;5054980;28;20075;-65
2023/10/23 08:33:08;;;;;;;213.27;138.85;;;35.30;92.40;;;;;;5054824;28;20025;-64
2023/10/23 08:35:36;;;;;;;207.10;138.05;;;35.20;91.80;;;;;;5054754;28;20029;-64
2023/10/23 08:38:04;;;;;;;212.35;137.82;;;35.20;91.90;;;;;;5054720;28;20096;-65
2023/10/23 08:40:31;;;;;;;224.98;140.43;;;35.20;91.70;;;;;;5054881;28;20024;-65
2023/10/23 08:42:59;;;;;;;203.60;136.65;;;35.20;90.80;;;;;;5054369;28;20032;-65
2023/10/23 08:45:26;;;;;;;197.30;135.40;;;35.30;91.40;;;;;;5054363;28;20052;-64
2023/10/23 08:47:53;;;;;;;219.90;144.55;;;35.20;91.30;;;;;;5054493;28;20081;-65
2023/10/23 08:50:22;;;;;;;217.50;144.07;;;35.20;90.40;;;;;;5054458;28;20017;-69
2023/10/23 08:52:58;;;;;;;209.60;134.55;;;35.20;91.40;;;;;;5054380;28;20406;-65
2023/10/23 08:55:30;;;;;;;211.75;138.02;;;35.20;91.70;;;;;;5054331;28;20025;-65
2023/10/23 08:58:00;;;;;;;236.65;161.30;;;35.20;91.80;;;;;;5053381;28;20025;-65
2023/10/23 09:00:26;;;;;;;212.48;145.15;;;35.20;91.20;;;;;;5054655;28;20425;-67
2023/10/23 09:02:54;;;;;;;215.27;143.30;;;35.20;90.90;;;;;;5054365;28;20122;-69
2023/10/23 09:05:20;;;;;;;209.25;138.45;;;35.20;91.20;;;;;;5054210;28;20028;-64
2023/10/23 09:07:47;;;;;;;206.63;139.20;;;35.20;91.30;;;;;;5054428;28;20381;-65
2023/10/23 09:10:14;;;;;;;205.13;136.85;;;35.30;91.20;;;;;;5054626;28;20510;-65
2023/10/23 09:12:41;;;;;;;207.77;137.32;;;35.30;91.30;;;;;;5054202;28;20383;-64
2023/10/23 09:15:20;;;;;;;217.10;141.38;;;35.20;91.10;;;;;;5045297;28;20423;-64
2023/10/23 09:17:50;;;;;;;259.50;172.35;;;35.20;91.20;;;;;;5026631;28;20037;-65
2023/10/23 09:20:19;;;;;;;255.70;172.50;;;35.20;90.40;;;;;;5034485;28;20029;-64
2023/10/23 09:22:48;;;;;;;249.23;162.63;;;35.20;91.10;;;;;;5034624;28;20232;-64
2023/10/23 09:25:26;;;;;;;277.20;171.02;;;35.20;91.40;;;;;;5034392;28;20549;-64
2023/10/23 09:27:53;;;;;;;276.08;186.55;;;35.20;91.30;;;;;;5034467;28;20021;-65
2023/10/23 09:30:22;;;;;;;276.08;186.10;;;35.10;91.40;;;;;;5034144;28;20017;-64
2023/10/23 09:32:53;;;;;;;265.13;179.60;;;35.20;91.80;;;;;;5034063;28;20032;-64
2023/10/23 09:35:24;;;;;;;284.27;190.45;;;35.20;91.50;;;;;;5034383;28;20060;-64
2023/10/23 09:37:51;;;;;;;281.00;183.27;;;35.20;91.10;;;;;;5034118;28;20109;-65
2023/10/23 09:40:18;;;;;;;294.75;196.73;;;35.10;90.50;;;;;;5034247;28;20021;-64
2023/10/23 09:42:45;;;;;;;274.85;180.88;;;35.10;90.80;;;;;;5034007;28;20029;-63
2023/10/23 09:45:12;;;;;;;275.65;175.48;;;35.10;90.20;;;;;;5034457;28;20017;-64
2023/10/23 09:47:42;;;;;;;164.85;88.80;;;35.00;90.90;;;;;;5032119;28;20099;-63
2023/10/23 09:50:09;;;;;;;85.20;45.92;;;34.60;92.80;;;;;;5032957;28;20022;-62
2023/10/23 09:52:37;;;;;;;67.05;34.70;;;34.00;94.00;;;;;;5026732;28;20472;-62
2023/10/23 09:55:06;;;;;;;56.35;33.92;;;33.40;94.90;;;;;;5018714;28;20025;-64
2023/10/23 09:57:39;;;;;;;58.03;29.90;;;33.30;95.90;;;;;;5014226;28;20057;-63
2023/10/23 10:00:17;;;;;;;61.58;31.17;;;33.20;96.10;;;;;;5014233;28;20490;-65
2023/10/23 10:02:49;;;;;;;61.15;34.95;;;32.90;96.30;;;;;;5014330;28;20033;-65
2023/10/23 10:05:46;;;;;;;48.83;30.77;;;32.70;96.60;;;;;;5013940;28;20254;-64
2023/10/23 10:08:17;;;;;;;52.97;31.67;;;32.50;97.70;;;;;;5013711;28;20025;-64
2023/10/23 10:10:45;;;;;;;89.20;50.63;;;32.50;97.30;;;;;;5030694;28;20036;-65
2023/10/23 10:13:12;;;;;;;57.47;31.13;;;32.30;97.00;;;;;;5034292;28;20049;-66
2023/10/23 10:15:39;;;;;;;58.47;31.63;;;32.00;97.00;;;;;;5033755;28;20026;-66
2023/10/23 10:18:06;;;;;;;47.00;26.88;;;31.80;97.10;;;;;;5033644;28;20118;-66
2023/10/23 10:20:33;;;;;;;37.90;24.00;;;31.70;97.40;;;;;;5033241;28;20033;-64
2023/10/23 10:23:08;;;;;;;36.25;22.77;;;31.70;97.70;;;;;;5033927;28;20025;-64
2023/10/23 10:25:37;;;;;;;36.67;22.02;;;31.70;98.10;;;;;;5033538;28;20079;-65
2023/10/23 10:28:06;;;;;;;77.75;45.47;;;31.90;98.20;;;;;;5033213;28;20029;-64
2023/10/23 10:30:43;;;;;;;46.58;24.02;;;31.70;98.00;;;;;;5043416;28;20429;-64
2023/10/23 10:33:16;;;;;;;45.90;26.50;;;31.50;98.00;;;;;;5041118;28;20033;-63
2023/10/23 10:35:51;;;;;;;66.32;35.80;;;31.50;98.40;;;;;;5039109;28;20021;-66
2023/10/23 10:38:22;;;;;;;68.43;37.92;;;31.40;98.60;;;;;;5041889;28;20057;-65
2023/10/23 10:41:01;;;;;;;80.97;43.88;;;31.40;98.80;;;;;;5050497;28;20032;-64
2023/10/23 10:43:32;;;;;;;56.55;32.28;;;31.50;99.10;;;;;;5053219;28;20500;-65
2023/10/23 10:46:04;;;;;;;32.00;17.48;;;31.40;99.20;;;;;;5053429;28;20021;-65
2023/10/23 10:48:46;;;;;;;24.77;16.00;;;31.30;99.50;;;;;;5053331;28;20031;-65
2023/10/23 10:51:18;;;;;;;;;;;31.20;99.60;;;;;;5053633;28;20022;-64
2023/10/23 10:53:47;;;;;;;28.13;19.60;;;31.20;99.90;;;;;;5053198;28;19999;-65
2023/10/23 10:56:14;;;;;;;46.67;28.13;;;31.00;99.90;;;;;;5053273;28;20021;-65
2023/10/23 10:58:43;;;;;;;105.63;64.05;;;30.90;99.90;;;;;;5043985;28;20029;-64
2023/10/23 11:01:10;;;;;;;80.63;48.78;;;30.80;99.90;;;;;;5029733;28;20478;-63
2023/10/23 11:03:37;;;;;;;55.95;31.60;;;30.90;99.90;;;;;;5023799;28;20066;-65
2023/10/23 11:06:06;;;;;;;127.22;66.88;;;30.80;99.90;;;;;;5038067;28;20025;-64
2023/10/23 11:08:33;;;;;;;100.20;58.60;;;30.80;99.90;;;;;;5042666;28;20037;-63
2023/10/23 11:11:05;;;;;;;80.95;43.95;;;30.90;99.90;;;;;;5041463;28;20021;-64
2023/10/23 11:13:33;;;;;;;98.70;53.15;;;31.00;99.90;;;;;;5042062;28;20412;-66
2023/10/23 11:16:00;;;;;;;59.05;32.90;;;31.00;99.90;;;;;;5043008;28;20425;-64
2023/10/23 11:18:29;;;;;;;57.42;31.10;;;30.80;99.90;;;;;;5039227;28;20026;-65
2023/10/23 11:21:00;;;;;;;74.07;36.83;;;30.80;99.90;;;;;;5043859;28;20446;-64
2023/10/23 11:23:29;;;;;;;53.58;28.88;;;30.90;99.90;;;;;;5043470;28;20026;-64
2023/10/23 11:25:56;;;;;;;113.93;64.72;;;30.80;99.90;;;;;;5045407;28;20028;-64
2023/10/23 11:28:24;;;;;;;102.28;57.92;;;30.80;99.90;;;;;;5042298;28;20010;-64
2023/10/23 11:31:00;;;;;;;123.07;57.92;;;30.70;99.90;;;;;;5045942;28;20017;-63
2023/10/23 11:33:26;;;;;;;83.65;44.78;;;30.60;99.90;;;;;;5043291;28;20104;-64
2023/10/23 11:35:54;;;;;;;40.65;23.83;;;30.50;99.90;;;;;;5045417;28;20466;-63
2023/10/23 11:38:25;;;;;;;82.43;41.72;;;30.40;99.90;;;;;;5046758;28;20551;-63
2023/10/23 11:40:53;;;;;;;153.60;67.80;;;30.40;99.90;;;;;;5046038;28;20049;-64
2023/10/23 11:43:20;;;;;;;155.60;73.80;;;30.50;99.90;;;;;;5044307;28;20017;-64
2023/10/23 11:45:48;;;;;;;155.85;74.25;;;30.50;99.90;;;;;;5046036;28;20021;-63
2023/10/23 11:48:14;;;;;;;131.88;65.85;;;30.60;99.90;;;;;;5041008;28;20083;-63
2023/10/23 11:50:42;;;;;;;85.35;47.80;;;30.60;99.90;;;;;;5045883;28;20018;-64
2023/10/23 11:53:09;;;;;;;80.80;50.33;;;30.60;99.90;;;;;;5044645;28;20025;-64
2023/10/23 11:55:38;;;;;;;43.35;28.35;;;30.60;99.90;;;;;;5044736;28;20159;-63
2023/10/23 11:58:05;;;;;;;31.15;20.00;;;30.60;99.90;;;;;;5047618;28;20028;-63
2023/10/23 12:00:37;;;;;;;36.42;21.80;;;30.50;99.90;;;;;;5045360;28;20025;-64
2023/10/23 12:03:04;;;;;;;33.45;20.60;;;30.30;99.90;;;;;;5041632;28;20029;-64
2023/10/23 12:05:31;;;;;;;25.90;16.52;;;30.30;99.90;;;;;;5045370;28;20021;-63
2023/10/23 12:07:58;;;;;;;26.38;15.00;;;30.30;99.90;;;;;;5043841;28;20522;-63
2023/10/23 12:10:26;;;;;;;22.08;15.60;;;30.20;99.90;;;;;;5041778;28;20057;-63
2023/10/23 12:12:54;;;;;;;27.13;17.33;;;30.30;99.90;;;;;;5045079;28;20124;-62
2023/10/23 12:17:49;;;;;;;31.27;17.77;;;30.10;99.90;;;;;;5044307;28;20475;-64
2023/10/23 12:20:16;;;;;;;30.35;17.67;;;30.00;99.90;;;;;;5044444;28;20053;-64
2023/10/23 12:22:45;;;;;;;27.75;17.42;;;30.00;99.90;;;;;;5041533;28;20026;-63
2023/10/23 12:25:16;;;;;;;29.85;17.42;;;30.00;99.90;;;;;;5044977;28;20023;-63